Terminal Aerodrome Forecast
Issued by NWS

Current Version | Previous Version | Text Only | Print | Product List | Glossary Off
Versions: 1 2 3 4 5 6 7 8 9 10 11 12 13 14 15 16 17 18 19 20 21 22 23 24 25

000
FTUS41 KILN 281125
TAFLCK
TAF
KLCK 281125Z 2812/2912 07008KT P6SM OVC014
     FM282000 01005KT P6SM VCSH BKN018 OVC025
     FM290000 35003KT P6SM BKN025
     FM290300 34003KT P6SM OVC007
     FM290700 33003KT 4SM BR OVC004=

USA.gov is the U.S. government's official web portal to all federal, state and local government web resources and services.